createdAt,value
2023-04-29T00:03:20.088Z,12.38
2023-04-29T00:18:22.972Z,12.30
2023-04-29T00:33:26.101Z,12.22
2023-04-29T00:48:28.798Z,12.09
2023-04-29T01:03:32.536Z,11.92
2023-04-29T01:18:41.917Z,11.87
2023-04-29T01:33:56.163Z,11.75
2023-04-29T01:48:58.739Z,11.61
2023-04-29T02:04:01.559Z,11.52
2023-04-29T02:19:04.304Z,11.46
2023-04-29T02:34:06.973Z,11.37
2023-04-29T02:49:09.547Z,11.33
2023-04-29T03:04:12.374Z,11.39
2023-04-29T03:19:15.243Z,11.47
2023-04-29T03:34:17.855Z,11.43
2023-04-29T03:49:20.749Z,11.41
2023-04-29T04:04:23.735Z,11.33
2023-04-29T04:19:27.213Z,11.24
2023-04-29T04:34:30.059Z,11.37
2023-04-29T04:49:32.670Z,11.52
2023-04-29T05:04:35.518Z,12.00
2023-04-29T05:19:38.101Z,13.67
2023-04-29T05:34:40.771Z,14.14
2023-04-29T05:49:43.371Z,14.78
2023-04-29T06:04:47.794Z,16.47
2023-04-29T06:19:51.056Z,22.01
2023-04-29T06:34:54.018Z,22.69
2023-04-29T06:49:56.614Z,20.73
2023-04-29T07:05:00.052Z,18.65
2023-04-29T07:20:04.175Z,17.25
2023-04-29T07:35:07.125Z,16.37
2023-04-29T07:50:10.424Z,15.82
2023-04-29T08:05:13.382Z,17.11
2023-04-29T08:20:16.485Z,16.49
2023-04-29T08:35:19.272Z,17.78
2023-04-29T08:50:23.732Z,16.89
2023-04-29T09:05:27.398Z,17.99
2023-04-29T09:20:30.982Z,19.30
2023-04-29T09:35:34.335Z,18.44
2023-04-29T09:50:44.252Z,21.19
2023-04-29T10:05:48.116Z,20.82
2023-04-29T10:20:51.381Z,20.42
2023-04-29T10:35:56.004Z,20.28
2023-04-29T10:50:59.067Z,20.82
2023-04-29T11:06:09.289Z,21.89
2023-04-29T11:21:12.872Z,22.56
2023-04-29T11:36:15.905Z,22.84
2023-04-29T11:51:22.615Z,23.92
2023-04-29T12:06:30.297Z,24.38
2023-04-29T12:21:34.509Z,23.72
2023-04-29T12:36:37.921Z,22.81
2023-04-29T12:51:40.746Z,21.76
2023-04-29T13:06:43.398Z,20.53
2023-04-29T13:21:46.887Z,20.75
2023-04-29T13:36:49.726Z,21.08
2023-04-29T14:06:58.206Z,21.53
2023-04-29T14:22:00.910Z,20.58
2023-04-29T14:37:03.615Z,20.06
2023-04-29T14:52:06.405Z,19.94
2023-04-29T15:07:09.267Z,20.07
2023-04-29T15:22:12.983Z,19.39
2023-04-29T15:37:15.870Z,17.29
2023-04-29T15:52:18.541Z,16.29
2023-04-29T16:07:21.179Z,15.78
2023-04-29T16:22:23.769Z,15.48
2023-04-29T16:37:26.317Z,15.13
2023-04-29T16:52:29.006Z,14.99
2023-04-29T17:07:31.839Z,14.89
2023-04-29T17:22:34.534Z,14.87
2023-04-29T17:37:37.220Z,14.57
2023-04-29T17:52:39.808Z,14.19
2023-04-29T18:07:42.402Z,13.74
2023-04-29T18:22:46.509Z,13.57
2023-04-29T18:37:49.278Z,13.47
2023-04-29T18:52:52.188Z,13.43
2023-04-29T19:07:54.788Z,13.35
2023-04-29T19:22:57.628Z,13.27
2023-04-29T19:38:00.374Z,13.19
2023-04-29T19:53:03.339Z,13.27
2023-04-29T20:08:07.229Z,13.01
2023-04-29T20:23:10.084Z,12.82
2023-04-29T20:38:12.718Z,12.87
2023-04-29T20:53:16.871Z,12.84
2023-04-29T21:08:45.047Z,12.78
2023-04-29T21:23:48.057Z,12.65
2023-04-29T21:38:52.781Z,12.49
2023-04-29T21:53:55.869Z,12.41
2023-04-29T22:08:58.458Z,12.31
2023-04-29T22:24:01.142Z,12.19
2023-04-29T22:39:03.823Z,12.10
2023-04-29T22:54:07.625Z,12.02
2023-04-29T23:09:10.301Z,12.23
2023-04-29T23:24:12.907Z,12.09
2023-04-29T23:39:15.624Z,11.93
2023-04-29T23:54:18.363Z,11.79
